Time,TemperatureF,DewpointF,PressureIn,WindDirection,WindDirectionDegrees,WindSpeedMPH,WindSpeedGustMPH,Humidity,HourlyPrecipIn,Conditions,Clouds,dailyrainin,SoftwareType,DateUTC
2013-04-08 00:21:00,60.4,48.0,29.39,SW,214,10.0,-999.0,64,-99.99,,,0.01,weatherlink.com 1.10,2013-04-07 21:21:00,
2013-04-08 00:36:00,60.4,48.0,29.39,SSW,207,8.0,-999.0,64,-99.99,,,0.01,weatherlink.com 1.10,2013-04-07 21:36:00,
2013-04-08 00:51:00,60.4,48.0,29.38,South,177,7.0,-999.0,65,-99.99,,,0.00,weatherlink.com 1.10,2013-04-07 21:51:00,
2013-04-08 01:06:00,60.2,49.0,29.39,SSE,168,5.0,-999.0,67,-99.99,,,0.00,weatherlink.com 1.10,2013-04-07 22:06:00,
2013-04-08 01:36:00,59.8,50.0,29.39,SSE,164,6.0,-999.0,70,-99.99,,,0.00,weatherlink.com 1.10,2013-04-07 22:36:00,
2013-04-08 02:06:00,59.4,51.0,29.38,SE,132,6.0,-999.0,74,-99.99,,,0.00,weatherlink.com 1.10,2013-04-07 23:06:00,
2013-04-08 02:21:00,59.2,51.0,29.38,SE,146,8.0,-999.0,75,-99.99,,,0.00,weatherlink.com 1.10,2013-04-07 23:21:00,
2013-04-08 02:36:00,59.1,52.0,29.37,South,175,6.0,-999.0,76,-99.99,,,0.00,weatherlink.com 1.10,2013-04-07 23:36:00,
2013-04-08 02:51:00,58.9,52.0,29.37,SSE,157,8.0,-999.0,77,-99.99,,,0.00,weatherlink.com 1.10,2013-04-07 23:51:00,
2013-04-08 03:21:00,58.7,52.0,29.37,SSE,148,0.0,-999.0,77,-99.99,,,0.00,weatherlink.com 1.10,2013-04-08 00:21:00,
2013-04-08 03:36:00,58.7,52.0,29.37,SSE,148,1.0,-999.0,77,-99.99,,,0.00,weatherlink.com 1.10,2013-04-08 00:36:00,
2013-04-08 03:51:00,58.6,51.0,29.37,SSE,148,0.0,-999.0,76,-99.99,,,0.00,weatherlink.com 1.10,2013-04-08 00:51:00,
2013-04-08 04:06:00,58.4,50.0,29.37,SSE,148,0.0,-999.0,74,-99.99,,,0.00,weatherlink.com 1.10,2013-04-08 01:06:00,
2013-04-08 04:21:00,58.5,50.0,29.37,SSE,148,1.0,-999.0,74,-99.99,,,0.00,weatherlink.com 1.10,2013-04-08 01:21:00,
2013-04-08 04:36:00,58.2,50.0,29.37,SSE,164,0.0,-999.0,74,-99.99,,,0.00,weatherlink.com 1.10,2013-04-08 01:36:00,
2013-04-08 04:52:00,58.1,50.0,29.37,SSE,149,0.0,-999.0,74,-99.99,,,0.00,weatherlink.com 1.10,2013-04-08 01:52:00,
2013-04-08 05:07:00,58.1,50.0,29.37,SSE,149,1.0,-999.0,75,-99.99,,,0.00,weatherlink.com 1.10,2013-04-08 02:07:00,
2013-04-08 05:22:00,58.1,50.0,29.38,SSE,149,0.0,-999.0,75,-99.99,,,0.00,weatherlink.com 1.10,2013-04-08 02:22:00,
2013-04-08 05:37:00,58.4,50.0,29.38,SSE,149,4.0,-999.0,74,-99.99,,,0.00,weatherlink.com 1.10,2013-04-08 02:37:00,
2013-04-08 05:52:00,58.4,49.0,29.39,SSW,213,0.0,-999.0,72,-99.99,,,0.00,weatherlink.com 1.10,2013-04-08 02:52:00,
2013-04-08 06:07:00,58.1,49.0,29.39,West,271,1.0,-999.0,71,-99.99,,,0.00,weatherlink.com 1.10,2013-04-08 03:07:00,
2013-04-08 06:22:00,57.8,49.0,29.40,NW,308,0.0,-999.0,72,-99.99,,,0.00,weatherlink.com 1.10,2013-04-08 03:22:00,
2013-04-08 06:37:00,57.7,49.0,29.41,WNW,295,0.0,-999.0,74,-99.99,,,0.00,weatherlink.com 1.10,2013-04-08 03:37:00,
2013-04-08 06:52:00,57.4,50.0,29.42,WNW,298,8.0,-999.0,76,-99.99,,,0.01,weatherlink.com 1.10,2013-04-08 03:52:00,
2013-04-08 07:07:00,57.1,51.0,29.43,NW,306,2.0,-999.0,80,-99.99,,,0.01,weatherlink.com 1.10,2013-04-08 04:07:00,
2013-04-08 07:22:00,56.5,51.0,29.44,WNW,289,5.0,-999.0,83,-99.99,,,0.02,weatherlink.com 1.10,2013-04-08 04:22:00,
2013-04-08 07:37:00,56.3,52.0,29.44,WNW,292,3.0,-999.0,84,-99.99,,,0.02,weatherlink.com 1.10,2013-04-08 04:37:00,
2013-04-08 08:07:00,56.8,51.0,29.46,NNW,331,4.0,-999.0,80,-99.99,,,0.02,weatherlink.com 1.10,2013-04-08 05:07:00,
2013-04-08 08:22:00,56.9,50.0,29.47,WNW,292,14.0,-999.0,78,-99.99,,,0.02,weatherlink.com 1.10,2013-04-08 05:22:00,
2013-04-08 08:37:00,57.2,50.0,29.48,NNW,331,7.0,-999.0,76,-99.99,,,0.02,weatherlink.com 1.10,2013-04-08 05:37:00,
2013-04-08 08:52:00,57.8,50.0,29.48,NNW,329,10.0,-999.0,75,-99.99,,,0.02,weatherlink.com 1.10,2013-04-08 05:52:00,
2013-04-08 09:07:00,58.1,49.0,29.50,NNW,328,8.0,-999.0,73,-99.99,,,0.02,weatherlink.com 1.10,2013-04-08 06:07:00,
2013-04-08 09:22:00,58.1,49.0,29.51,NNW,344,1.0,-999.0,72,-99.99,,,0.02,weatherlink.com 1.10,2013-04-08 06:22:00,
2013-04-08 09:37:00,58.2,49.0,29.52,North,5,1.0,-999.0,72,-99.99,,,0.02,weatherlink.com 1.10,2013-04-08 06:37:00,
2013-04-08 09:52:00,58.4,49.0,29.53,North,360,4.0,-999.0,72,-99.99,,,0.02,weatherlink.com 1.10,2013-04-08 06:52:00,
2013-04-08 10:07:00,58.2,50.0,29.54,NNW,343,0.0,-999.0,73,-99.99,,,0.02,weatherlink.com 1.10,2013-04-08 07:07:00,
2013-04-08 10:22:00,58.6,48.0,29.55,NNW,331,7.0,-999.0,69,-99.99,,,0.02,weatherlink.com 1.10,2013-04-08 07:22:00,
2013-04-08 10:37:00,59.1,48.0,29.56,WNW,292,4.0,-999.0,68,-99.99,,,0.02,weatherlink.com 1.10,2013-04-08 07:37:00,
2013-04-08 10:52:00,59.1,48.0,29.57,NW,323,8.0,-999.0,68,-99.99,,,0.02,weatherlink.com 1.10,2013-04-08 07:52:00,
2013-04-08 11:07:00,58.9,48.0,29.59,West,276,8.0,-999.0,68,-99.99,,,0.02,weatherlink.com 1.10,2013-04-08 08:07:00,
2013-04-08 11:22:00,58.7,48.0,29.59,NW,311,11.0,-999.0,67,-99.99,,,0.02,weatherlink.com 1.10,2013-04-08 08:22:00,
2013-04-08 11:38:00,59.0,48.0,29.60,NNW,335,7.0,-999.0,66,-99.99,,,0.02,weatherlink.com 1.10,2013-04-08 08:38:00,
2013-04-08 11:53:00,59.0,47.0,29.61,West,281,4.0,-999.0,65,-99.99,,,0.02,weatherlink.com 1.10,2013-04-08 08:53:00,
2013-04-08 12:08:00,59.4,47.0,29.61,NNW,329,12.0,-999.0,64,-99.99,,,0.02,weatherlink.com 1.10,2013-04-08 09:08:00,
2013-04-08 12:23:00,59.7,47.0,29.61,NNW,330,9.0,-999.0,64,-99.99,,,0.02,weatherlink.com 1.10,2013-04-08 09:23:00,
2013-04-08 12:38:00,60.0,47.0,29.62,NW,308,1.0,-999.0,63,-99.99,,,0.02,weatherlink.com 1.10,2013-04-08 09:38:00,
2013-04-08 12:53:00,59.7,47.0,29.63,North,349,0.0,-999.0,63,-99.99,,,0.02,weatherlink.com 1.10,2013-04-08 09:53:00,
2013-04-08 13:08:00,60.0,47.0,29.63,NNE,22,4.0,-999.0,63,-99.99,,,0.02,weatherlink.com 1.10,2013-04-08 10:08:00,
2013-04-08 13:23:00,60.2,47.0,29.64,NW,317,1.0,-999.0,62,-99.99,,,0.02,weatherlink.com 1.10,2013-04-08 10:23:00,
2013-04-08 13:38:00,59.6,46.0,29.64,NNW,335,0.0,-999.0,62,-99.99,,,0.02,weatherlink.com 1.10,2013-04-08 10:38:00,
2013-04-08 13:53:00,59.3,46.0,29.66,NW,319,2.0,-999.0,62,-99.99,,,0.02,weatherlink.com 1.10,2013-04-08 10:53:00,
2013-04-08 14:08:00,59.6,46.0,29.66,NW,321,0.0,-999.0,62,-99.99,,,0.02,weatherlink.com 1.10,2013-04-08 11:08:00,
2013-04-08 14:23:00,58.9,47.0,29.67,WNW,288,8.0,-999.0,64,-99.99,,,0.02,weatherlink.com 1.10,2013-04-08 11:23:00,
2013-04-08 14:38:00,58.8,47.0,29.67,West,272,6.0,-999.0,65,-99.99,,,0.02,weatherlink.com 1.10,2013-04-08 11:38:00,
2013-04-08 14:53:00,58.9,47.0,29.68,West,273,5.0,-999.0,65,-99.99,,,0.02,weatherlink.com 1.10,2013-04-08 11:53:00,
2013-04-08 15:08:00,58.8,47.0,29.68,WNW,287,6.0,-999.0,66,-99.99,,,0.02,weatherlink.com 1.10,2013-04-08 12:08:00,
2013-04-08 15:23:00,58.6,47.0,29.68,NW,321,0.0,-999.0,66,-99.99,,,0.02,weatherlink.com 1.10,2013-04-08 12:23:00,
2013-04-08 15:38:00,59.0,48.0,29.68,WNW,299,4.0,-999.0,66,-99.99,,,0.02,weatherlink.com 1.10,2013-04-08 12:38:00,
2013-04-08 15:53:00,59.5,48.0,29.68,WSW,250,0.0,-999.0,66,-99.99,,,0.02,weatherlink.com 1.10,2013-04-08 12:53:00,
2013-04-08 16:08:00,59.4,47.0,29.68,WSW,252,5.0,-999.0,64,-99.99,,,0.02,weatherlink.com 1.10,2013-04-08 13:08:00,
2013-04-08 16:23:00,59.2,47.0,29.69,SW,227,2.0,-999.0,65,-99.99,,,0.02,weatherlink.com 1.10,2013-04-08 13:23:00,
2013-04-08 16:38:00,59.1,47.0,29.69,SW,235,5.0,-999.0,64,-99.99,,,0.02,weatherlink.com 1.10,2013-04-08 13:38:00,
2013-04-08 16:53:00,59.1,47.0,29.70,WSW,250,7.0,-999.0,64,-99.99,,,0.02,weatherlink.com 1.10,2013-04-08 13:53:00,
2013-04-08 17:08:00,58.3,47.0,29.71,West,278,9.0,-999.0,66,-99.99,,,0.02,weatherlink.com 1.10,2013-04-08 14:08:00,
2013-04-08 17:23:00,57.7,48.0,29.71,West,266,1.0,-999.0,70,-99.99,,,0.02,weatherlink.com 1.10,2013-04-08 14:23:00,
2013-04-08 17:38:00,57.2,47.0,29.72,West,273,0.0,-999.0,70,-99.99,,,0.02,weatherlink.com 1.10,2013-04-08 14:38:00,
2013-04-08 17:53:00,57.1,48.0,29.73,WSW,250,6.0,-999.0,71,-99.99,,,0.02,weatherlink.com 1.10,2013-04-08 14:53:00,
2013-04-08 18:08:00,57.0,48.0,29.73,WSW,245,7.0,-999.0,71,-99.99,,,0.02,weatherlink.com 1.10,2013-04-08 15:08:00,
2013-04-08 18:23:00,57.0,48.0,29.74,SW,215,2.0,-999.0,73,-99.99,,,0.02,weatherlink.com 1.10,2013-04-08 15:23:00,
2013-04-08 18:38:00,57.0,48.0,29.74,SW,227,0.0,-999.0,73,-99.99,,,0.02,weatherlink.com 1.10,2013-04-08 15:38:00,
2013-04-08 18:53:00,57.0,48.0,29.74,NE,34,0.0,-999.0,73,-99.99,,,0.02,weatherlink.com 1.10,2013-04-08 15:53:00,
2013-04-08 19:08:00,57.3,48.0,29.75,NE,41,0.0,-999.0,72,-99.99,,,0.02,weatherlink.com 1.10,2013-04-08 16:08:00,
2013-04-08 19:23:00,57.8,48.0,29.76,WSW,246,5.0,-999.0,70,-99.99,,,0.02,weatherlink.com 1.10,2013-04-08 16:23:00,
2013-04-08 20:39:00,57.9,47.0,29.78,SSE,152,1.0,-999.0,67,-99.99,,,0.02,weatherlink.com 1.10,2013-04-08 17:39:00,
2013-04-08 21:09:00,58.2,47.0,29.80,WNW,286,12.0,-999.0,67,-99.99,,,0.02,weatherlink.com 1.10,2013-04-08 18:09:00,
2013-04-08 21:24:00,58.3,46.0,29.80,WSW,245,2.0,-999.0,65,-99.99,,,0.02,weatherlink.com 1.10,2013-04-08 18:24:00,
2013-04-08 21:39:00,58.2,46.0,29.81,NW,305,7.0,-999.0,65,-99.99,,,0.02,weatherlink.com 1.10,2013-04-08 18:39:00,
2013-04-08 21:54:00,58.0,47.0,29.81,WNW,288,5.0,-999.0,66,-99.99,,,0.02,weatherlink.com 1.10,2013-04-08 18:54:00,
2013-04-08 22:09:00,57.7,47.0,29.82,WNW,297,1.0,-999.0,67,-99.99,,,0.02,weatherlink.com 1.10,2013-04-08 19:09:00,
2013-04-08 22:24:00,57.6,47.0,29.81,WNW,296,0.0,-999.0,67,-99.99,,,0.02,weatherlink.com 1.10,2013-04-08 19:24:00,
2013-04-08 22:39:00,57.4,47.0,29.82,WNW,297,1.0,-999.0,68,-99.99,,,0.02,weatherlink.com 1.10,2013-04-08 19:39:00,
2013-04-08 22:54:00,57.3,47.0,29.82,WNW,296,0.0,-999.0,68,-99.99,,,0.02,weatherlink.com 1.10,2013-04-08 19:54:00,
2013-04-08 23:09:00,57.2,47.0,29.83,WNW,297,0.0,-999.0,68,-99.99,,,0.02,weatherlink.com 1.10,2013-04-08 20:09:00,
2013-04-08 23:24:00,57.2,47.0,29.84,WNW,296,0.0,-999.0,68,-99.99,,,0.02,weatherlink.com 1.10,2013-04-08 20:24:00,
2013-04-08 23:39:00,57.2,47.0,29.84,SSW,212,0.0,-999.0,69,-99.99,,,0.02,weatherlink.com 1.10,2013-04-08 20:39:00,
2013-04-08 23:54:00,57.0,47.0,29.85,SW,215,4.0,-999.0,70,-99.99,,,0.02,weatherlink.com 1.10,2013-04-08 20:54:00,